Time;durP1;ratioP1;P1;durP2;ratioP2;P2;SDS_P1;SDS_P2;PMS_P1;PMS_P2;Temp;Humidity;BMP_temperature;BMP_pressure;BME280_temperature;BME280_humidity;BME280_pressure;Samples;Min_cycle;Max_cycle;Signal;HPM_P1;HPM_P2
2023/12/25 00:00:14;;;;;;;2.42;2.10;;;;;;;11.27;100.00;100512.41;5069818;28;20032;-36
2023/12/25 00:02:39;;;;;;;2.35;2.15;;;;;;;11.28;100.00;100520.31;5069844;28;20028;-36
2023/12/25 00:05:05;;;;;;;3.10;2.43;;;;;;;11.23;100.00;100511.28;5069492;28;20032;-36
2023/12/25 00:07:30;;;;;;;3.35;2.10;;;;;;;11.27;100.00;100515.97;5062466;28;20343;-36
2023/12/25 00:09:56;;;;;;;2.80;2.47;;;;;;;11.28;100.00;100519.47;5056243;28;20520;-36
2023/12/25 00:12:23;;;;;;;2.45;2.25;;;;;;;11.29;100.00;100531.94;5056154;28;20533;-36
2023/12/25 00:14:48;;;;;;;2.50;2.30;;;;;;;11.29;100.00;100526.53;5055998;28;20033;-36
2023/12/25 00:17:15;;;;;;;5.68;4.78;;;;;;;11.28;100.00;100522.19;5056010;28;20465;-36
2023/12/25 00:19:40;;;;;;;2.92;2.63;;;;;;;11.15;100.00;100498.94;5056302;28;20419;-36
2023/12/25 00:22:05;;;;;;;2.60;2.40;;;;;;;11.21;100.00;100500.66;5056567;28;20032;-36
2023/12/25 00:24:31;;;;;;;2.70;2.50;;;;;;;11.23;100.00;100506.69;5056326;28;20468;-36
2023/12/25 00:26:56;;;;;;;2.80;2.60;;;;;;;11.22;100.00;100499.59;5056241;28;20057;-36
2023/12/25 00:29:21;;;;;;;3.47;3.17;;;;;;;11.16;100.00;100499.75;5055959;28;20373;-36
2023/12/25 00:31:47;;;;;;;2.88;2.67;;;;;;;11.19;100.00;100500.09;5055829;28;20366;-36
2023/12/25 00:34:13;;;;;;;2.85;2.65;;;;;;;11.16;100.00;100494.34;5055775;28;20112;-36
2023/12/25 00:36:38;;;;;;;3.03;2.63;;;;;;;11.20;100.00;100498.22;5055783;28;20446;-36
2023/12/25 00:39:03;;;;;;;3.10;2.77;;;;;;;11.14;100.00;100502.72;5056222;28;20272;-36
2023/12/25 00:41:31;;;;;;;4.70;3.07;;;;;;;11.20;100.00;100495.50;5056000;28;20071;-36
2023/12/25 00:43:58;;;;;;;3.00;2.80;;;;;;;11.11;100.00;100486.13;5055796;28;20367;-36
2023/12/25 00:46:23;;;;;;;3.58;3.30;;;;;;;11.18;100.00;100509.28;5055250;28;20029;-36
2023/12/25 00:48:48;;;;;;;3.40;3.10;;;;;;;11.20;100.00;100515.28;5055240;28;20032;-36
2023/12/25 00:51:14;;;;;;;3.67;3.37;;;;;;;11.21;100.00;100516.09;5055431;28;20397;-36
2023/12/25 00:53:39;;;;;;;4.23;3.30;;;;;;;11.22;100.00;100515.03;5055155;28;20275;-36
2023/12/25 00:56:05;;;;;;;3.03;2.83;;;;;;;11.18;100.00;100509.28;5055618;28;20300;-36
2023/12/25 00:58:30;;;;;;;3.03;2.83;;;;;;;11.23;100.00;100516.69;5055538;28;20431;-36
2023/12/25 01:00:55;;;;;;;3.40;3.10;;;;;;;11.26;100.00;100510.78;5055841;28;20059;-36
2023/12/25 01:03:21;;;;;;;3.30;3.00;;;;;;;11.25;100.00;100526.19;5055801;28;20025;-36
2023/12/25 01:05:46;;;;;;;5.20;2.90;;;;;;;11.27;100.00;100534.91;5056031;28;20259;-36
2023/12/25 01:08:11;;;;;;;3.07;2.77;;;;;;;11.27;100.00;100534.06;5055184;28;20271;-36
2023/12/25 01:10:37;;;;;;;3.40;3.10;;;;;;;11.31;100.00;100535.22;5055364;28;20025;-36
2023/12/25 01:13:02;;;;;;;3.97;2.60;;;;;;;11.26;100.00;100513.47;5055048;28;20029;-36
2023/12/25 01:15:28;;;;;;;3.20;2.40;;;;;;;11.29;100.00;100510.28;5055507;28;20111;-36
2023/12/25 01:17:53;;;;;;;2.87;2.60;;;;;;;11.31;100.00;100521.69;5055213;28;20029;-36
2023/12/25 01:20:18;;;;;;;3.10;2.45;;;;;;;11.32;100.00;100515.19;5054629;28;20025;-36
2023/12/25 01:22:44;;;;;;;3.33;2.63;;;;;;;11.32;100.00;100528.72;5054952;28;20111;-36
2023/12/25 01:25:09;;;;;;;4.63;2.80;;;;;;;11.37;100.00;100539.69;5054803;28;20107;-36
2023/12/25 01:27:39;;;;;;;4.43;2.90;;;;;;;11.29;100.00;100530.06;5054820;28;20032;-36
2023/12/25 01:30:05;;;;;;;5.13;2.80;;;;;;;11.32;100.00;100526.03;5054664;28;20385;-36
2023/12/25 01:32:30;;;;;;;3.08;2.50;;;;;;;11.38;100.00;100544.03;5054399;28;20029;-36
2023/12/25 01:34:55;;;;;;;3.07;2.73;;;;;;;11.33;100.00;100535.81;5054359;28;20036;-36
2023/12/25 01:37:21;;;;;;;3.40;2.63;;;;;;;11.39;100.00;100545.66;5054625;28;20116;-36
2023/12/25 01:39:46;;;;;;;3.70;2.83;;;;;;;11.39;100.00;100555.69;5054247;28;20307;-36
2023/12/25 01:42:11;;;;;;;3.80;2.95;;;;;;;11.35;100.00;100553.44;5055085;28;20074;-36
2023/12/25 01:44:37;;;;;;;2.60;2.40;;;;;;;11.37;100.00;100542.38;5054988;28;20037;-36
2023/12/25 01:47:02;;;;;;;2.97;2.53;;;;;;;11.38;100.00;100544.03;5054400;28;20025;-36
2023/12/25 01:49:28;;;;;;;2.88;2.40;;;;;;;11.37;100.00;100547.81;5054136;28;20806;-36
2023/12/25 01:51:53;;;;;;;2.50;2.25;;;;;;;11.37;100.00;100542.38;5054892;28;20061;-36
2023/12/25 01:54:19;;;;;;;3.08;2.20;;;;;;;11.39;100.00;100544.84;5054517;28;20021;-36
2023/12/25 01:56:46;;;;;;;4.53;2.53;;;;;;;11.39;100.00;100545.66;5055256;28;20049;-36
2023/12/25 01:59:11;;;;;;;2.63;2.28;;;;;;;11.39;100.00;100556.50;5054437;28;20028;-36
2023/12/25 02:01:36;;;;;;;3.00;2.47;;;;;;;11.40;100.00;100557.31;5053895;28;20025;-36
2023/12/25 02:04:02;;;;;;;4.23;2.63;;;;;;;11.41;100.00;100550.81;5054071;28;20029;-36
2023/12/25 02:06:27;;;;;;;5.05;2.80;;;;;;;11.34;100.00;100546.38;5054604;28;20347;-36
2023/12/25 02:08:54;;;;;;;3.65;2.63;;;;;;;11.39;100.00;100553.78;5053916;28;20060;-36
2023/12/25 02:11:19;;;;;;;;;;;;;;;11.43;100.00;100563.06;5054675;28;20572;-36
2023/12/25 02:13:44;;;;;;;4.73;2.77;;;;;;;11.39;100.00;100561.91;5053916;28;19912;-36
2023/12/25 02:16:10;;;;;;;3.60;2.90;;;;;;;11.41;100.00;100570.59;5053621;28;20275;-36
2023/12/25 02:18:35;;;;;;;4.47;2.80;;;;;;;11.41;100.00;100561.66;5053751;28;20028;-36
2023/12/25 02:21:01;;;;;;;4.20;2.50;;;;;;;11.40;100.00;100568.97;5054148;28;20028;-36
2023/12/25 02:23:29;;;;;;;4.50;2.95;;;;;;;11.39;100.00;100556.50;5054035;28;20024;-36
2023/12/25 02:25:57;;;;;;;4.70;2.78;;;;;;;11.43;100.00;100565.78;5053381;28;20504;-36
2023/12/25 02:28:23;;;;;;;3.67;2.83;;;;;;;11.44;100.00;100567.41;5053568;28;20086;-36
2023/12/25 02:30:48;;;;;;;4.43;2.75;;;;;;;11.47;100.00;100566.94;5053423;28;20029;-36
2023/12/25 02:33:14;;;;;;;5.05;2.30;;;;;;;11.46;100.00;100572.56;5053291;28;20448;-36
2023/12/25 02:35:40;;;;;;;4.65;2.50;;;;;;;11.43;100.00;100568.47;5053747;28;20029;-36
2023/12/25 02:38:05;;;;;;;4.72;2.33;;;;;;;11.46;100.00;100569.88;5053552;28;20029;-36
2023/12/25 02:40:30;;;;;;;4.43;2.17;;;;;;;11.53;100.00;100581.38;5054170;28;20041;-36
2023/12/25 02:42:56;;;;;;;3.92;2.33;;;;;;;11.55;100.00;100585.47;5053829;28;20541;-36
2023/12/25 02:45:21;;;;;;;2.17;1.80;;;;;;;11.59;100.00;100588.53;5054053;28;20037;-36
2023/12/25 02:47:46;;;;;;;5.70;2.40;;;;;;;11.52;100.00;100577.84;5054081;28;20029;-36
2023/12/25 02:50:12;;;;;;;3.70;2.40;;;;;;;11.62;100.00;100595.34;5053438;28;20052;-36
2023/12/25 02:52:37;;;;;;;5.37;2.47;;;;;;;11.63;100.00;100586.16;5053743;28;20263;-36
2023/12/25 02:55:02;;;;;;;4.40;2.33;;;;;;;11.63;100.00;100594.28;5053221;28;20726;-36
2023/12/25 02:57:28;;;;;;;3.17;2.10;;;;;;;11.63;100.00;100603.22;5054012;28;20029;-36
2023/12/25 02:59:53;;;;;;;3.88;2.45;;;;;;;11.63;100.00;100599.69;5053536;28;20033;-36
2023/12/25 03:02:19;;;;;;;5.63;2.53;;;;;;;11.64;100.00;100599.44;5053124;28;20071;-36
2023/12/25 03:04:44;;;;;;;3.08;2.60;;;;;;;11.65;100.00;100584.00;5053298;28;20056;-36
2023/12/25 03:07:10;;;;;;;3.10;2.30;;;;;;;11.65;100.00;100590.25;5053355;28;20089;-36
2023/12/25 03:09:35;;;;;;;4.45;2.30;;;;;;;11.65;100.00;100578.59;5052942;28;20278;-36
2023/12/25 03:12:01;;;;;;;5.00;2.65;;;;;;;11.67;100.00;100584.59;5054089;28;20033;-36
2023/12/25 03:14:26;;;;;;;3.33;2.00;;;;;;;11.66;100.00;100583.75;5052927;28;20505;-36
2023/12/25 03:16:51;;;;;;;3.03;2.30;;;;;;;11.60;100.00;100574.72;5053467;28;20430;-36
2023/12/25 03:19:16;;;;;;;3.60;2.47;;;;;;;11.68;100.00;100578.94;5053718;28;20418;-36
2023/12/25 03:21:42;;;;;;;3.90;2.40;;;;;;;11.69;100.00;100575.16;5053722;28;20263;-36
2023/12/25 03:24:07;;;;;;;3.17;2.47;;;;;;;11.68;100.00;100588.97;5052862;28;20058;-36
2023/12/25 03:26:33;;;;;;;3.73;2.37;;;;;;;11.68;100.00;100581.66;5053065;28;20033;-36
2023/12/25 03:28:59;;;;;;;4.53;3.00;;;;;;;11.68;100.00;100583.53;5052978;28;20021;-36
2023/12/25 03:31:24;;;;;;;3.37;2.37;;;;;;;11.64;100.00;100593.22;5053978;28;20040;-36
2023/12/25 03:33:49;;;;;;;4.00;2.70;;;;;;;11.68;100.00;100588.97;5053070;28;20616;-36
2023/12/25 03:36:15;;;;;;;2.30;2.10;;;;;;;11.68;100.00;100597.09;5053011;28;20381;-36
2023/12/25 03:38:40;;;;;;;2.10;1.90;;;;;;;11.69;100.00;100602.25;5052709;28;20032;-36
2023/12/25 03:41:07;;;;;;;5.03;2.47;;;;;;;11.66;100.00;100596.50;5053609;28;20056;-36
2023/12/25 03:43:33;;;;;;;2.47;2.10;;;;;;;11.70;100.00;100600.34;5055611;28;20804;-36
2023/12/25 03:45:58;;;;;;;2.93;1.93;;;;;;;11.71;100.00;100607.41;5057334;28;20111;-36
2023/12/25 03:48:23;;;;;;;2.10;1.70;;;;;;;11.70;100.00;100600.34;5056688;28;20457;-36
2023/12/25 03:50:49;;;;;;;2.33;1.83;;;;;;;11.62;100.00;100600.78;5056935;28;20750;-36
2023/12/25 03:53:14;;;;;;;2.40;2.00;;;;;;;11.69;100.00;100609.56;5057176;28;20033;-36
2023/12/25 03:55:40;;;;;;;2.75;1.90;;;;;;;11.69;100.00;100606.84;5056694;28;20052;-36
2023/12/25 03:58:05;;;;;;;2.03;1.70;;;;;;;11.69;100.00;100612.25;5056531;28;20048;-36
2023/12/25 04:00:30;;;;;;;4.38;2.20;;;;;;;11.68;100.00;100616.03;5056771;28;20047;-36
2023/12/25 04:02:56;;;;;;;2.60;2.20;;;;;;;11.69;100.00;100609.56;5057008;28;20056;-36
2023/12/25 04:05:23;;;;;;;3.08;2.10;;;;;;;11.69;100.00;100620.38;5056292;28;20098;-37
2023/12/25 04:07:49;;;;;;;3.05;2.30;;;;;;;11.58;100.00;100590.41;5056611;28;20127;-37
2023/12/25 04:10:15;;;;;;;2.90;2.40;;;;;;;11.65;100.00;100606.50;5055922;28;20420;-36
2023/12/25 04:12:40;;;;;;;2.85;2.50;;;;;;;11.64;100.00;100598.63;5056848;28;20049;-36
2023/12/25 04:15:06;;;;;;;3.80;3.50;;;;;;;11.62;100.00;100614.31;5056458;28;20061;-36
2023/12/25 04:17:31;;;;;;;3.55;3.25;;;;;;;11.58;100.00;100603.97;5056676;28;20082;-36
2023/12/25 04:19:57;;;;;;;4.70;4.10;;;;;;;11.56;100.00;100610.66;5056043;28;20025;-36
2023/12/25 04:22:22;;;;;;;4.07;3.67;;;;;;;11.54;100.00;100600.09;5056072;28;20025;-36
2023/12/25 04:24:48;;;;;;;5.00;4.50;;;;;;;11.49;100.00;100597.28;5056269;28;20279;-36
2023/12/25 04:27:13;;;;;;;4.95;4.53;;;;;;;11.43;100.00;100598.25;5056195;28;20255;-36
2023/12/25 04:29:38;;;;;;;5.97;5.45;;;;;;;11.29;100.00;100575.25;5055828;28;20025;-36
2023/12/25 04:32:04;;;;;;;6.10;5.57;;;;;;;11.40;100.00;100597.91;5056128;28;20488;-36
2023/12/25 04:34:30;;;;;;;6.10;5.60;;;;;;;11.38;100.00;100589.22;5055512;28;20020;-36
2023/12/25 04:36:55;;;;;;;6.27;5.67;;;;;;;11.35;100.00;100598.66;5056300;28;20033;-36
2023/12/25 04:39:20;;;;;;;6.17;5.57;;;;;;;11.27;100.00;100586.34;5055496;28;20027;-36
2023/12/25 04:41:46;;;;;;;6.43;5.78;;;;;;;11.32;100.00;100591.00;5056242;28;20025;-36
2023/12/25 04:44:11;;;;;;;6.80;6.20;;;;;;;11.24;100.00;100583.28;5055670;28;20079;-36
2023/12/25 04:46:39;;;;;;;6.20;5.70;;;;;;;11.28;100.00;100596.09;5055619;28;20040;-36
2023/12/25 04:49:05;;;;;;;6.45;5.85;;;;;;;11.26;100.00;100591.97;5055490;28;20109;-36
2023/12/25 04:51:30;;;;;;;6.78;5.95;;;;;;;11.24;100.00;100599.53;5055502;28;20053;-36
2023/12/25 04:53:56;;;;;;;6.23;5.73;;;;;;;11.22;100.00;100588.09;5055083;28;20103;-36
2023/12/25 04:56:21;;;;;;;5.73;5.23;;;;;;;11.20;100.00;100584.81;5055737;28;20307;-36
2023/12/25 04:58:46;;;;;;;5.40;5.00;;;;;;;11.18;100.00;100584.25;5055368;28;20043;-36
2023/12/25 05:01:12;;;;;;;5.43;4.93;;;;;;;11.13;100.00;100590.38;5055600;28;20040;-36
2023/12/25 05:03:37;;;;;;;6.07;5.47;;;;;;;11.12;100.00;100575.19;5055531;28;20767;-36
2023/12/25 05:06:03;;;;;;;5.43;4.93;;;;;;;11.04;100.00;100565.59;5056038;28;20120;-36
2023/12/25 05:08:28;;;;;;;6.22;5.65;;;;;;;11.11;100.00;100572.72;5055127;28;20295;-36
2023/12/25 05:10:53;;;;;;;5.50;5.00;;;;;;;11.11;100.00;100573.56;5055477;28;20116;-36
2023/12/25 05:13:19;;;;;;;4.75;4.35;;;;;;;11.04;100.00;100568.28;5055848;28;20057;-36
2023/12/25 05:15:44;;;;;;;4.30;4.00;;;;;;;11.05;100.00;100577.22;5054727;28;20025;-36
2023/12/25 05:18:09;;;;;;;3.30;3.00;;;;;;;11.07;100.00;100573.19;5055256;28;20021;-36
2023/12/25 05:20:35;;;;;;;2.87;2.67;;;;;;;11.08;100.00;100574.88;5055514;28;20032;-36
2023/12/25 05:23:01;;;;;;;2.92;2.72;;;;;;;10.99;100.00;100562.78;5055447;28;20263;-36
2023/12/25 05:25:26;;;;;;;3.35;2.60;;;;;;;11.07;100.00;100573.19;5054811;28;20067;-36
2023/12/25 05:27:52;;;;;;;2.13;1.98;;;;;;;11.06;100.00;100571.56;5055375;28;20032;-36
2023/12/25 05:30:17;;;;;;;2.22;2.03;;;;;;;11.03;100.00;100572.06;5054750;28;20029;-36
2023/12/25 05:32:42;;;;;;;3.05;2.35;;;;;;;11.02;100.00;100578.50;5055026;28;20068;-36
2023/12/25 05:35:08;;;;;;;2.70;2.50;;;;;;;10.94;100.00;100559.16;5054858;28;20055;-36
2023/12/25 05:37:34;;;;;;;2.58;2.38;;;;;;;10.98;100.00;100573.81;5054651;28;20029;-36
2023/12/25 05:40:00;;;;;;;2.97;2.60;;;;;;;10.97;100.00;100575.72;5054587;28;20117;-36
2023/12/25 05:42:25;;;;;;;;;;;;;;;11.01;100.00;100581.47;5055781;28;20256;-36
2023/12/25 05:44:50;;;;;;;2.53;2.33;;;;;;;10.96;100.00;100576.78;5055029;28;19908;-36
2023/12/25 05:47:16;;;;;;;3.53;2.50;;;;;;;10.94;100.00;100573.50;5054244;28;20350;-36
2023/12/25 05:49:41;;;;;;;2.80;2.60;;;;;;;10.91;100.00;100563.16;5054394;28;20032;-36
2023/12/25 05:52:06;;;;;;;2.70;2.50;;;;;;;10.93;100.00;100571.00;5054631;28;20072;-36
2023/12/25 05:54:32;;;;;;;2.80;2.60;;;;;;;10.92;100.00;100574.78;5054487;28;20028;-36
2023/12/25 05:56:58;;;;;;;2.45;2.25;;;;;;;10.92;100.00;100574.78;5054600;28;20067;-36
2023/12/25 05:59:23;;;;;;;2.50;2.30;;;;;;;10.92;100.00;100582.91;5054081;28;20021;-36
2023/12/25 06:01:49;;;;;;;2.10;2.00;;;;;;;10.83;100.00;100572.47;5054759;28;20112;-36
2023/12/25 06:04:14;;;;;;;2.15;1.95;;;;;;;10.93;100.00;100584.53;5053978;28;20264;-36
2023/12/25 06:06:40;;;;;;;3.45;2.05;;;;;;;10.87;100.00;100571.97;5054292;28;20037;-36
2023/12/25 06:09:06;;;;;;;;;;;;;;;10.95;100.00;100572.44;5054136;28;20033;-36
2023/12/25 06:11:31;;;;;;;2.00;1.80;;;;;;;10.92;100.00;100580.19;5054330;28;19913;-36
2023/12/25 06:13:56;;;;;;;2.10;1.90;;;;;;;10.83;100.00;100560.81;5053707;28;20108;-36
2023/12/25 06:16:22;;;;;;;2.63;2.40;;;;;;;10.82;100.00;100561.88;5054430;28;20319;-36
2023/12/25 06:18:47;;;;;;;2.15;2.00;;;;;;;10.90;100.00;100575.03;5054180;28;20056;-36
2023/12/25 06:21:14;;;;;;;2.45;2.25;;;;;;;10.86;100.00;100567.63;5054187;28;20036;-36
2023/12/25 06:23:40;;;;;;;2.55;2.35;;;;;;;10.91;100.00;100576.69;5053751;28;20025;-36
2023/12/25 06:26:05;;;;;;;2.40;2.20;;;;;;;10.89;100.00;100568.00;5054092;28;20064;-36
2023/12/25 06:28:31;;;;;;;2.50;2.30;;;;;;;10.92;100.00;100572.91;5053708;28;20098;-36
2023/12/25 06:30:57;;;;;;;;;;;;;;;10.95;100.00;100571.63;5054965;28;20052;-36
2023/12/25 06:33:22;;;;;;;2.42;2.22;;;;;;;10.93;100.00;100562.91;5053338;28;20428;-36
2023/12/25 06:35:47;;;;;;;2.85;2.65;;;;;;;10.93;100.00;100563.75;5054114;28;20035;-36
2023/12/25 06:38:13;;;;;;;2.57;2.37;;;;;;;10.92;100.00;100577.50;5054108;28;20032;-36
2023/12/25 06:40:39;;;;;;;2.80;2.60;;;;;;;10.94;100.00;100588.91;5053548;28;20302;-36
2023/12/25 06:43:04;;;;;;;2.85;2.40;;;;;;;10.95;100.00;100607.59;5053829;28;20036;-36
2023/12/25 06:45:29;;;;;;;2.70;2.50;;;;;;;10.94;100.00;100610.56;5054065;28;20033;-36
2023/12/25 06:47:55;;;;;;;3.72;0.93;;;;;;;10.74;100.00;100616.38;5053436;28;20029;-36
2023/12/25 06:50:20;;;;;;;2.90;0.80;;;;;;;10.44;100.00;100598.41;5053742;28;20041;-36
2023/12/25 06:52:46;;;;;;;1.73;0.60;;;;;;;10.37;100.00;100626.59;5053676;28;20588;-36
2023/12/25 06:55:11;;;;;;;3.45;1.10;;;;;;;10.23;100.00;100620.56;5052956;28;20048;-37
2023/12/25 06:57:37;;;;;;;2.05;0.70;;;;;;;10.21;100.00;100647.84;5053919;28;20028;-36
2023/12/25 07:00:04;;;;;;;2.77;0.47;;;;;;;10.13;100.00;100640.06;5053377;28;20037;-36
2023/12/25 07:02:29;;;;;;;0.85;0.40;;;;;;;10.04;100.00;100636.88;5053934;28;20255;-36
2023/12/25 07:04:55;;;;;;;2.00;0.60;;;;;;;9.96;100.00;100625.59;5053552;28;20025;-36
2023/12/25 07:07:20;;;;;;;1.10;0.50;;;;;;;9.84;100.00;100609.34;5053337;28;20051;-36
2023/12/25 07:09:45;;;;;;;3.60;0.73;;;;;;;9.91;100.00;100637.09;5053070;28;20025;-37
2023/12/25 07:12:11;;;;;;;2.60;0.80;;;;;;;9.91;100.00;100645.19;5053647;28;20033;-36
2023/12/25 07:14:36;;;;;;;1.50;0.70;;;;;;;9.91;100.00;100647.09;5052956;28;20103;-36
2023/12/25 07:17:02;;;;;;;0.82;0.30;;;;;;;9.90;100.00;100642.72;5053500;28;20056;-36
2023/12/25 07:19:28;;;;;;;1.45;0.50;;;;;;;9.83;100.00;100637.41;5057185;28;20380;-36
2023/12/25 07:21:53;;;;;;;1.67;0.57;;;;;;;9.88;100.00;100656.44;5056928;28;20111;-36
2023/12/25 07:24:18;;;;;;;2.13;0.63;;;;;;;9.87;100.00;100646.72;5057224;28;20115;-36
2023/12/25 07:26:44;;;;;;;0.80;0.40;;;;;;;9.86;100.00;100652.31;5057239;28;20247;-36
2023/12/25 07:29:09;;;;;;;0.63;0.37;;;;;;;9.83;100.00;100653.63;5057146;28;20059;-36
2023/12/25 07:31:35;;;;;;;0.67;0.50;;;;;;;9.84;100.00;100657.16;5056852;28;20036;-36
2023/12/25 07:34:00;;;;;;;1.58;0.50;;;;;;;9.75;100.00;100652.06;5056877;28;20484;-36
2023/12/25 07:36:25;;;;;;;2.58;1.58;;;;;;;9.79;100.00;100657.84;5056549;28;20021;-36
2023/12/25 07:38:51;;;;;;;1.20;0.50;;;;;;;9.82;100.00;100664.66;5057195;28;20029;-36
2023/12/25 07:41:16;;;;;;;3.70;0.67;;;;;;;9.75;100.00;100664.75;5057140;28;20321;-36
2023/12/25 07:43:42;;;;;;;0.45;0.32;;;;;;;9.79;100.00;100669.44;5056809;28;20039;-36
2023/12/25 07:46:08;;;;;;;2.30;0.50;;;;;;;9.80;100.00;100678.38;5057324;28;20053;-36
2023/12/25 07:48:34;;;;;;;2.15;0.95;;;;;;;9.70;100.00;100670.00;5056997;28;20263;-36
2023/12/25 07:50:59;;;;;;;;;;;;;;;9.80;100.00;100675.69;5057141;28;20124;-36
2023/12/25 07:53:25;;;;;;;2.45;1.73;;;;;;;9.70;100.00;100670.00;5057434;28;19952;-36
2023/12/25 07:55:50;;;;;;;4.57;3.10;;;;;;;9.74;100.00;100687.41;5057019;28;20183;-36
2023/12/25 07:58:15;;;;;;;2.97;1.90;;;;;;;9.76;100.00;100690.69;5056551;28;20430;-36
2023/12/25 08:00:44;;;;;;;1.03;0.57;;;;;;;9.76;100.00;100694.25;5056255;28;20523;-36
2023/12/25 08:03:11;;;;;;;0.98;0.80;;;;;;;9.77;100.00;100705.84;5056369;28;20271;-36
2023/12/25 08:05:36;;;;;;;;;;;;;;;9.80;100.00;100702.69;5057146;28;20044;-36
2023/12/25 08:08:01;;;;;;;0.90;0.60;;;;;;;9.79;100.00;100701.03;5056379;28;20276;-36
2023/12/25 08:10:28;;;;;;;1.23;0.77;;;;;;;9.79;100.00;100707.25;5056088;28;20025;-36
2023/12/25 08:12:53;;;;;;;1.45;0.63;;;;;;;9.77;100.00;100706.69;5056738;28;20059;-36
2023/12/25 08:15:19;;;;;;;1.95;0.73;;;;;;;9.78;100.00;100712.91;5056110;28;20025;-36
2023/12/25 08:17:44;;;;;;;2.00;0.93;;;;;;;9.72;100.00;100700.31;5055886;28;20036;-36
2023/12/25 08:20:10;;;;;;;2.77;1.00;;;;;;;9.78;100.00;100712.91;5055828;28;20036;-36
2023/12/25 08:22:35;;;;;;;2.03;0.82;;;;;;;9.77;100.00;100713.97;5056656;28;20021;-36
2023/12/25 08:25:01;;;;;;;1.63;0.70;;;;;;;9.77;100.00;100716.66;5056519;28;20021;-36
2023/12/25 08:27:26;;;;;;;1.27;0.55;;;;;;;9.75;100.00;100716.06;5056088;28;20430;-36
2023/12/25 08:29:51;;;;;;;1.95;0.70;;;;;;;9.72;100.00;100711.13;5055558;28;20120;-36
2023/12/25 08:32:17;;;;;;;1.97;1.10;;;;;;;9.75;100.00;100724.16;5055611;28;20025;-36
2023/12/25 08:34:42;;;;;;;1.73;0.80;;;;;;;9.75;100.00;100716.88;5055537;28;20033;-36
2023/12/25 08:37:08;;;;;;;2.27;0.80;;;;;;;9.74;100.00;100717.09;5056117;28;20029;-36
2023/12/25 08:39:34;;;;;;;2.10;1.00;;;;;;;9.63;100.00;100690.88;5055741;28;20275;-36
2023/12/25 08:42:01;;;;;;;2.75;1.15;;;;;;;9.75;100.00;100714.16;5056312;28;20032;-36
2023/12/25 08:44:27;;;;;;;0.95;0.60;;;;;;;9.77;100.00;100719.38;5056386;28;20028;-36
2023/12/25 08:46:52;;;;;;;1.05;0.55;;;;;;;9.78;100.00;100723.72;5056486;28;20150;-36
2023/12/25 08:49:18;;;;;;;3.00;0.53;;;;;;;9.77;100.00;100738.25;5056203;28;20025;-36
2023/12/25 08:51:43;;;;;;;1.08;0.40;;;;;;;9.77;100.00;100743.66;5055528;28;20256;-36
2023/12/25 08:54:09;;;;;;;1.00;0.50;;;;;;;9.78;100.00;100742.59;5055354;28;20033;-36
2023/12/25 08:56:35;;;;;;;1.23;0.50;;;;;;;9.73;100.00;100737.88;5054977;28;20045;-36
2023/12/25 08:59:00;;;;;;;1.55;0.47;;;;;;;9.71;100.00;100723.81;5055242;28;20385;-36
2023/12/25 09:01:26;;;;;;;1.65;0.60;;;;;;;9.76;100.00;100725.78;5055346;28;20033;-36
2023/12/25 09:03:51;;;;;;;1.52;0.70;;;;;;;9.78;100.00;100727.22;5054600;28;20034;-36
2023/12/25 09:06:17;;;;;;;1.23;0.50;;;;;;;9.79;100.00;100725.34;5054594;28;20043;-36
2023/12/25 09:08:42;;;;;;;1.55;0.60;;;;;;;9.80;100.00;100724.28;5054504;28;20033;-36
2023/12/25 09:11:09;;;;;;;1.13;0.70;;;;;;;9.82;100.00;100745.69;5054888;28;20029;-36
2023/12/25 09:13:35;;;;;;;1.20;0.70;;;;;;;9.82;100.00;100741.09;5054401;28;20767;-36
2023/12/25 09:16:00;;;;;;;1.75;0.70;;;;;;;9.83;100.00;100758.13;5054497;28;20033;-36
2023/12/25 09:18:26;;;;;;;1.13;0.70;;;;;;;9.83;100.00;100756.25;5054695;28;20047;-36
2023/12/25 09:20:51;;;;;;;1.55;0.70;;;;;;;9.82;100.00;100753.78;5054671;28;20256;-36
2023/12/25 09:23:18;;;;;;;0.93;0.60;;;;;;;9.84;100.00;100766.00;5055336;28;20063;-36
2023/12/25 09:25:43;;;;;;;1.13;0.45;;;;;;;9.81;100.00;100779.97;5054591;28;20033;-36
2023/12/25 09:28:08;;;;;;;2.40;2.05;;;;;;;9.83;100.00;100775.16;5054814;28;20031;-36
2023/12/25 09:30:34;;;;;;;5.30;4.33;;;;;;;9.66;100.00;100763.31;5054590;28;20040;-36
2023/12/25 09:32:59;;;;;;;4.30;2.60;;;;;;;9.82;100.00;100800.53;5054783;28;20267;-36
2023/12/25 09:35:24;;;;;;;2.07;1.43;;;;;;;9.85;100.00;100796.53;5054574;28;20024;-36
2023/12/25 09:37:50;;;;;;;2.33;1.40;;;;;;;9.85;100.00;100802.75;5054406;28;20271;-36
2023/12/25 09:40:15;;;;;;;1.27;0.70;;;;;;;9.85;100.00;100802.75;5053785;28;20155;-36
2023/12/25 09:42:41;;;;;;;1.13;0.80;;;;;;;9.78;100.00;100792.03;5054819;28;20462;-36
2023/12/25 09:45:10;;;;;;;1.40;0.63;;;;;;;9.83;100.00;100795.94;5054469;28;20028;-36
2023/12/25 09:47:35;;;;;;;3.03;1.10;;;;;;;9.79;100.00;100785.56;5054529;28;20025;-36
2023/12/25 09:50:02;;;;;;;1.45;0.65;;;;;;;9.87;100.00;100789.84;5055235;28;20420;-36
2023/12/25 09:52:28;;;;;;;1.30;0.50;;;;;;;9.86;100.00;100787.38;5054648;28;20029;-36
2023/12/25 09:54:53;;;;;;;1.92;0.45;;;;;;;9.78;100.00;100761.50;5054005;28;20025;-36
2023/12/25 09:57:20;;;;;;;1.23;0.60;;;;;;;9.77;100.00;100765.28;5054835;28;20090;-36
2023/12/25 09:59:46;;;;;;;0.65;0.50;;;;;;;9.86;100.00;100790.91;5054186;28;20276;-36
2023/12/25 10:02:14;;;;;;;0.95;0.70;;;;;;;9.86;100.00;100776.56;5054736;28;20103;-36
2023/12/25 10:04:44;;;;;;;1.25;0.50;;;;;;;9.82;100.00;100775.41;5054084;28;20025;-36
2023/12/25 10:07:09;;;;;;;1.58;0.75;;;;;;;9.77;100.00;100773.38;5054432;28;20029;-36
2023/12/25 10:09:34;;;;;;;0.70;0.40;;;;;;;9.85;100.00;100788.41;5053788;28;20469;-36
2023/12/25 10:12:00;;;;;;;0.97;0.70;;;;;;;9.85;100.00;100796.53;5054056;28;20108;-36
2023/12/25 10:14:25;;;;;;;2.20;0.95;;;;;;;9.85;100.00;100797.34;5054453;28;20025;-36
2023/12/25 10:16:56;;;;;;;2.13;1.10;;;;;;;9.85;100.00;100805.44;5053822;28;20032;-36
2023/12/25 10:19:21;;;;;;;3.35;1.45;;;;;;;9.83;100.00;100807.56;5053588;28;20465;-36
2023/12/25 10:21:46;;;;;;;3.50;1.43;;;;;;;9.84;100.00;100795.69;5054119;28;20074;-36
2023/12/25 10:24:14;;;;;;;2.07;1.50;;;;;;;9.73;100.00;100788.38;5054588;28;20056;-36
2023/12/25 10:26:40;;;;;;;2.08;1.15;;;;;;;9.79;100.00;100800.97;5054013;28;20040;-36
2023/12/25 10:29:08;;;;;;;2.15;1.50;;;;;;;9.79;100.00;100796.38;5053777;28;20416;-36
2023/12/25 10:31:36;;;;;;;2.63;1.40;;;;;;;9.78;100.00;100797.44;5054171;28;20039;-36
2023/12/25 10:34:01;;;;;;;3.47;1.80;;;;;;;9.78;100.00;100805.53;5053335;28;20032;-36
2023/12/25 10:36:27;;;;;;;1.38;0.55;;;;;;;9.77;100.00;100816.56;5053869;28;20381;-36
2023/12/25 10:38:54;;;;;;;2.80;1.03;;;;;;;9.75;100.00;100816.78;5053583;28;20079;-36
2023/12/25 10:41:33;;;;;;;1.55;0.55;;;;;;;9.63;100.00;100790.78;5053857;28;20029;-36
2023/12/25 10:44:01;;;;;;;1.63;0.70;;;;;;;9.49;100.00;100774.72;5053543;28;20116;-36
2023/12/25 10:46:35;;;;;;;1.70;0.63;;;;;;;9.66;100.00;100807.38;5053174;28;20500;-36
2023/12/25 10:49:03;;;;;;;2.33;0.55;;;;;;;9.64;100.00;100801.34;5053978;28;20021;-36
2023/12/25 10:51:33;;;;;;;1.83;0.73;;;;;;;9.63;100.00;100809.69;5052985;28;20159;-36
2023/12/25 10:54:10;;;;;;;2.35;1.02;;;;;;;9.58;100.00;100799.56;5053325;28;20035;-36
2023/12/25 10:56:37;;;;;;;2.35;0.80;;;;;;;9.62;100.00;100794.53;5053622;28;20057;-36
2023/12/25 10:59:15;;;;;;;2.33;0.65;;;;;;;9.62;100.00;100791.84;5053250;28;20021;-36
2023/12/25 11:01:48;;;;;;;2.85;0.80;;;;;;;9.53;100.00;100775.94;5053835;28;20048;-36
2023/12/25 11:04:17;;;;;;;2.90;0.70;;;;;;;9.62;100.00;100791.84;5053325;28;20116;-36
2023/12/25 11:06:44;;;;;;;2.55;0.80;;;;;;;9.63;100.00;100798.88;5053817;28;20036;-36
2023/12/25 11:09:11;;;;;;;2.75;0.80;;;;;;;9.62;100.00;100792.66;5052928;28;20025;-36
2023/12/25 11:11:38;;;;;;;1.77;0.70;;;;;;;9.62;100.00;100803.47;5053557;28;20032;-36
2023/12/25 11:14:06;;;;;;;2.13;0.65;;;;;;;9.61;100.00;100806.38;5053127;28;20111;-36